Time;durP1;ratioP1;P1;durP2;ratioP2;P2;SDS_P1;SDS_P2;PMS_P1;PMS_P2;Temp;Humidity;BMP_temperature;BMP_pressure;BME280_temperature;BME280_humidity;BME280_pressure;Samples;Min_cycle;Max_cycle;Signal;HPM_P1;HPM_P2
2023/08/09 00:00:50;;;;;;;17.75;9.23;;;13.30;99.90;;;;;;5001298;28;20042;-72
2023/08/09 00:03:15;;;;;;;21.73;10.15;;;13.30;99.90;;;;;;4996950;28;20041;-72
2023/08/09 00:05:41;;;;;;;17.52;10.30;;;13.40;99.90;;;;;;5010970;28;20074;-71
2023/08/09 00:08:06;;;;;;;21.33;11.25;;;13.40;99.90;;;;;;5003437;28;20048;-72
2023/08/09 00:10:35;;;;;;;20.27;10.77;;;13.40;99.90;;;;;;4988195;28;20077;-72
2023/08/09 00:13:01;;;;;;;18.40;10.88;;;13.40;99.90;;;;;;5007992;28;20044;-72
2023/08/09 00:15:27;;;;;;;19.30;11.35;;;13.40;99.90;;;;;;5012522;28;20038;-72
2023/08/09 00:17:53;;;;;;;19.77;10.82;;;13.40;99.90;;;;;;4978504;28;20070;-72
2023/08/09 00:20:22;;;;;;;23.17;11.45;;;13.50;99.90;;;;;;5009898;28;20073;-72
2023/08/09 00:22:49;;;;;;;22.58;11.45;;;13.50;99.90;;;;;;5010855;28;20172;-72
2023/08/09 00:25:15;;;;;;;22.33;11.38;;;13.40;99.90;;;;;;5011260;28;20054;-72
2023/08/09 00:27:41;;;;;;;21.83;12.05;;;13.50;99.90;;;;;;4986444;28;20042;-72
2023/08/09 00:30:13;;;;;;;23.25;11.68;;;13.40;99.90;;;;;;5002323;28;20064;-72
2023/08/09 00:32:40;;;;;;;24.35;11.55;;;13.50;99.90;;;;;;5011243;28;20073;-72
2023/08/09 00:35:07;;;;;;;22.48;12.02;;;13.50;99.90;;;;;;4990549;28;20382;-71
2023/08/09 00:37:32;;;;;;;22.35;11.88;;;13.40;99.90;;;;;;5002677;28;20038;-72
2023/08/09 00:39:59;;;;;;;26.00;12.27;;;13.50;99.90;;;;;;5010743;28;20402;-71
2023/08/09 00:42:24;;;;;;;25.17;12.55;;;13.50;99.90;;;;;;4988799;28;20044;-72
2023/08/09 00:44:50;;;;;;;23.63;12.60;;;13.50;99.90;;;;;;4994095;28;20037;-72
2023/08/09 00:47:16;;;;;;;21.58;11.93;;;13.50;99.90;;;;;;5010167;28;20117;-70
2023/08/09 00:49:44;;;;;;;29.27;12.60;;;13.50;99.90;;;;;;5011971;28;20640;-72
2023/08/09 00:52:10;;;;;;;25.65;13.40;;;13.50;99.90;;;;;;4982079;28;20046;-73
2023/08/09 00:54:42;;;;;;;23.88;13.20;;;13.50;99.90;;;;;;5001869;28;20034;-72
2023/08/09 00:57:08;;;;;;;25.67;13.57;;;13.40;99.90;;;;;;5010360;28;20042;-72
2023/08/09 00:59:34;;;;;;;23.25;13.60;;;13.50;99.90;;;;;;4990982;28;20128;-72
2023/08/09 01:01:59;;;;;;;26.75;13.15;;;13.40;99.90;;;;;;5003129;28;20104;-72
2023/08/09 01:04:25;;;;;;;26.60;13.50;;;13.40;99.90;;;;;;5010355;28;20416;-72
2023/08/09 01:06:51;;;;;;;28.08;13.80;;;13.40;99.90;;;;;;5004158;28;20161;-71
2023/08/09 01:09:49;;;;;;;23.58;13.10;;;13.40;99.90;;;;;;4998435;28;20128;-72
2023/08/09 01:12:21;;;;;;;22.65;12.70;;;13.40;99.90;;;;;;5010478;28;20049;-72
2023/08/09 01:14:52;;;;;;;25.00;13.20;;;13.40;99.90;;;;;;5011814;28;20500;-71
2023/08/09 01:17:18;;;;;;;26.45;13.77;;;13.40;99.90;;;;;;4996819;28;20042;-72
2023/08/09 01:19:54;;;;;;;26.10;13.13;;;13.40;99.90;;;;;;5009904;28;20492;-72
2023/08/09 01:22:29;;;;;;;26.65;14.13;;;13.30;99.90;;;;;;4971044;28;20046;-72
2023/08/09 01:24:58;;;;;;;30.63;14.68;;;13.30;99.90;;;;;;4997929;28;20053;-71
2023/08/09 01:27:23;;;;;;;26.85;14.45;;;13.30;99.90;;;;;;5005991;28;20137;-71
2023/08/09 01:29:50;;;;;;;28.55;14.27;;;13.30;99.90;;;;;;5011623;28;20561;-71
2023/08/09 01:32:15;;;;;;;29.55;14.43;;;13.30;99.90;;;;;;5011801;28;20038;-71
2023/08/09 01:34:41;;;;;;;28.45;14.90;;;13.30;99.90;;;;;;4987751;28;20027;-71
2023/08/09 01:37:15;;;;;;;26.42;14.40;;;13.30;99.90;;;;;;5011364;28;20131;-71
2023/08/09 01:39:43;;;;;;;31.52;15.82;;;13.30;99.90;;;;;;5010184;28;20496;-71
2023/08/09 01:42:11;;;;;;;26.05;15.60;;;13.30;99.90;;;;;;4980145;28;20057;-71
2023/08/09 01:44:37;;;;;;;31.38;14.98;;;13.30;99.90;;;;;;5000213;28;20117;-70
2023/08/09 01:47:03;;;;;;;28.00;15.25;;;13.20;99.90;;;;;;5011265;28;20042;-71
2023/08/09 01:49:29;;;;;;;25.95;14.52;;;13.20;99.90;;;;;;4991071;28;20046;-71
2023/08/09 01:51:55;;;;;;;27.55;14.57;;;13.20;99.90;;;;;;4987975;28;20081;-71
2023/08/09 01:54:20;;;;;;;26.60;15.00;;;13.20;99.90;;;;;;5010437;28;20046;-71
2023/08/09 01:56:46;;;;;;;37.00;14.80;;;13.20;99.90;;;;;;5010169;28;20640;-70
2023/08/09 01:59:12;;;;;;;28.60;13.93;;;13.20;99.90;;;;;;4978091;28;20136;-71
2023/08/09 02:01:37;;;;;;;29.80;14.68;;;13.10;99.90;;;;;;5000414;28;20034;-72
2023/08/09 02:04:04;;;;;;;35.75;15.43;;;13.10;99.90;;;;;;5009648;28;20552;-72
2023/08/09 02:06:34;;;;;;;51.17;14.75;;;13.10;99.90;;;;;;4995982;28;20050;-72
2023/08/09 02:09:00;;;;;;;39.33;15.30;;;13.10;99.90;;;;;;4986081;28;20089;-72
2023/08/09 02:11:26;;;;;;;36.47;15.25;;;13.10;99.90;;;;;;5011217;28;20133;-71
2023/08/09 02:13:52;;;;;;;51.78;15.05;;;13.20;99.90;;;;;;5002402;28;20181;-71
2023/08/09 02:16:18;;;;;;;37.08;15.27;;;13.10;99.90;;;;;;4993725;28;20029;-71
2023/08/09 02:18:44;;;;;;;37.25;15.25;;;13.10;99.90;;;;;;5009168;28;20100;-71
2023/08/09 02:21:10;;;;;;;39.70;15.30;;;13.10;99.90;;;;;;5013620;28;20041;-70
2023/08/09 02:23:37;;;;;;;33.25;15.68;;;13.10;99.90;;;;;;4997394;28;20401;-70
2023/08/09 02:26:03;;;;;;;41.05;15.93;;;13.10;99.90;;;;;;5006957;28;20042;-71
2023/08/09 02:28:29;;;;;;;36.88;15.65;;;13.10;99.90;;;;;;5013169;28;20044;-71
2023/08/09 02:30:56;;;;;;;42.75;14.93;;;13.00;99.90;;;;;;5005282;28;20042;-70
2023/08/09 02:33:22;;;;;;;34.38;14.50;;;13.10;99.90;;;;;;5001439;28;20144;-71
2023/08/09 02:35:59;;;;;;;40.83;15.40;;;13.10;99.90;;;;;;5013150;28;20559;-71
2023/08/09 02:38:26;;;;;;;38.35;15.20;;;13.00;99.90;;;;;;5012934;28;20124;-70
2023/08/09 02:40:52;;;;;;;46.38;14.18;;;13.00;99.90;;;;;;5000295;28;20057;-71
2023/08/09 02:43:19;;;;;;;37.03;13.55;;;13.00;99.90;;;;;;5012760;28;20038;-70
2023/08/09 02:45:45;;;;;;;39.08;14.73;;;12.90;99.90;;;;;;5013160;28;20057;-71
2023/08/09 02:48:11;;;;;;;51.65;14.27;;;12.90;99.90;;;;;;4993132;28;20030;-71
2023/08/09 02:50:37;;;;;;;40.55;14.43;;;12.80;99.90;;;;;;4996035;28;20038;-72
2023/08/09 02:53:04;;;;;;;44.15;15.23;;;12.90;99.90;;;;;;5013803;28;20401;-72
2023/08/09 02:55:33;;;;;;;43.78;14.00;;;12.80;99.90;;;;;;4998880;28;20059;-72
2023/08/09 02:58:00;;;;;;;39.65;14.65;;;12.90;99.90;;;;;;5000216;28;20050;-71
2023/08/09 03:00:26;;;;;;;42.80;14.65;;;12.80;99.90;;;;;;5013361;28;20057;-72
2023/08/09 03:02:52;;;;;;;39.45;15.35;;;12.80;99.90;;;;;;5013052;28;20046;-70
2023/08/09 03:05:17;;;;;;;35.38;14.57;;;12.80;99.90;;;;;;4983784;28;20049;-70
2023/08/09 03:07:43;;;;;;;39.15;14.57;;;12.90;99.90;;;;;;5010735;28;20512;-72
2023/08/09 03:10:09;;;;;;;45.17;14.55;;;12.80;99.90;;;;;;5012597;28;20046;-72
2023/08/09 03:12:35;;;;;;;34.45;14.10;;;12.80;99.90;;;;;;5012424;28;20046;-72
2023/08/09 03:15:01;;;;;;;45.90;14.38;;;12.80;99.90;;;;;;4996421;28;20046;-73
2023/08/09 03:17:27;;;;;;;35.42;14.20;;;12.80;99.90;;;;;;5013259;28;20173;-72
2023/08/09 03:19:52;;;;;;;43.60;14.90;;;12.70;99.90;;;;;;5012634;28;20120;-71
2023/08/09 03:22:18;;;;;;;31.05;13.88;;;12.80;99.90;;;;;;4993482;28;20128;-71
2023/08/09 03:24:44;;;;;;;46.40;13.95;;;12.70;99.90;;;;;;5005949;28;20033;-71
2023/08/09 03:27:10;;;;;;;47.10;14.02;;;12.70;99.90;;;;;;5012219;28;20050;-71
2023/08/09 03:29:36;;;;;;;35.90;13.63;;;12.70;99.90;;;;;;5011949;28;20045;-71
2023/08/09 03:32:01;;;;;;;47.58;13.95;;;12.60;99.90;;;;;;4991928;28;20045;-71
2023/08/09 03:34:27;;;;;;;39.08;14.75;;;12.60;99.90;;;;;;5006451;28;20130;-70
2023/08/09 03:36:53;;;;;;;56.05;14.43;;;12.60;99.90;;;;;;4992740;28;20030;-71
2023/08/09 03:39:18;;;;;;;44.38;14.50;;;12.60;99.90;;;;;;4991593;28;20037;-70
2023/08/09 03:41:44;;;;;;;35.65;14.25;;;12.50;99.90;;;;;;5007918;28;20054;-71
2023/08/09 03:44:09;;;;;;;38.58;13.50;;;12.50;99.90;;;;;;5011993;28;20084;-70
2023/08/09 03:46:36;;;;;;;38.78;14.68;;;12.60;99.90;;;;;;5009302;28;20048;-72
2023/08/09 03:49:02;;;;;;;38.67;13.98;;;12.60;99.90;;;;;;4989725;28;20118;-72
2023/08/09 03:51:28;;;;;;;36.58;14.45;;;12.60;99.90;;;;;;5012939;28;20117;-72
2023/08/09 03:53:53;;;;;;;44.28;14.60;;;12.60;99.90;;;;;;4997526;28;20145;-72
2023/08/09 03:56:19;;;;;;;32.67;14.10;;;12.60;99.90;;;;;;4988556;28;20034;-72
2023/08/09 03:58:44;;;;;;;35.75;14.57;;;12.60;99.90;;;;;;4991565;28;20528;-72
2023/08/09 04:01:11;;;;;;;37.55;14.07;;;12.50;99.90;;;;;;4993263;28;20130;-72
2023/08/09 04:03:38;;;;;;;34.53;13.77;;;12.60;99.90;;;;;;4982840;28;20405;-72
2023/08/09 04:06:05;;;;;;;36.17;13.90;;;12.50;99.90;;;;;;4992510;28;20109;-72
2023/08/09 04:08:31;;;;;;;33.22;13.63;;;12.60;99.90;;;;;;4985456;28;20038;-70
2023/08/09 04:10:59;;;;;;;30.98;13.85;;;12.50;99.90;;;;;;4971551;28;20038;-70
2023/08/09 04:13:25;;;;;;;31.92;13.48;;;12.50;99.90;;;;;;4976055;28;20038;-74
2023/08/09 04:15:51;;;;;;;34.75;14.40;;;12.40;99.90;;;;;;4985376;28;20045;-71
2023/08/09 04:18:17;;;;;;;41.10;15.13;;;12.40;99.90;;;;;;4992718;28;20030;-71
2023/08/09 04:20:43;;;;;;;39.95;13.85;;;12.40;99.90;;;;;;4981798;28;20050;-70
2023/08/09 04:23:09;;;;;;;35.50;13.10;;;12.40;99.90;;;;;;5009780;28;20427;-71
2023/08/09 04:25:35;;;;;;;41.78;14.18;;;12.40;99.90;;;;;;4991121;28;20043;-72
2023/08/09 04:28:01;;;;;;;51.53;14.30;;;12.40;99.90;;;;;;4982262;28;20038;-70
2023/08/09 04:30:28;;;;;;;43.90;14.02;;;12.40;99.90;;;;;;4986619;28;20046;-71
2023/08/09 04:32:53;;;;;;;29.20;13.23;;;12.40;99.90;;;;;;5010947;28;20049;-72
2023/08/09 04:35:19;;;;;;;50.08;13.93;;;12.40;99.90;;;;;;5011181;28;20040;-73
2023/08/09 04:37:45;;;;;;;43.88;13.35;;;12.40;99.90;;;;;;4993925;28;20034;-72
2023/08/09 04:40:11;;;;;;;77.47;14.02;;;12.40;99.90;;;;;;4972193;28;20047;-71
2023/08/09 04:42:41;;;;;;;71.55;14.32;;;12.40;99.90;;;;;;4991257;28;20038;-71
2023/08/09 04:45:11;;;;;;;80.90;15.98;;;12.40;99.90;;;;;;4976776;28;20490;-71
2023/08/09 04:47:37;;;;;;;64.93;14.18;;;12.50;99.90;;;;;;5008669;28;20033;-71
2023/08/09 04:50:03;;;;;;;97.70;14.38;;;12.50;99.90;;;;;;5001536;28;20083;-70
2023/08/09 04:52:30;;;;;;;100.18;13.77;;;12.50;99.90;;;;;;4991078;28;20057;-70
2023/08/09 04:54:56;;;;;;;72.13;12.77;;;12.50;99.90;;;;;;4979293;28;20113;-70
2023/08/09 04:57:22;;;;;;;83.30;13.18;;;12.50;99.90;;;;;;4978180;28;20031;-71
2023/08/09 04:59:48;;;;;;;61.30;13.98;;;12.50;99.90;;;;;;4977339;28;20042;-72
2023/08/09 05:02:14;;;;;;;74.13;13.73;;;12.60;99.90;;;;;;4990721;28;20038;-71
2023/08/09 05:04:39;;;;;;;68.75;13.02;;;12.60;99.90;;;;;;5008257;28;20026;-71
2023/08/09 05:07:05;;;;;;;58.60;12.13;;;12.60;99.90;;;;;;5011286;28;20496;-71
2023/08/09 05:09:31;;;;;;;90.10;13.48;;;12.60;99.90;;;;;;5010282;28;20050;-71
2023/08/09 05:11:58;;;;;;;79.68;13.25;;;12.60;99.90;;;;;;4992442;28;20407;-72
2023/08/09 05:14:24;;;;;;;102.93;13.82;;;12.70;99.90;;;;;;4996686;28;20109;-72
2023/08/09 05:16:50;;;;;;;61.65;12.90;;;12.70;99.90;;;;;;4990720;28;20122;-71
2023/08/09 05:19:16;;;;;;;62.58;12.55;;;12.70;99.90;;;;;;4990145;28;20117;-71
2023/08/09 05:21:41;;;;;;;51.05;13.05;;;12.70;99.90;;;;;;5007346;28;20500;-71
2023/08/09 05:24:07;;;;;;;45.78;12.80;;;12.70;99.90;;;;;;5000996;28;20133;-72
2023/08/09 05:26:32;;;;;;;45.90;12.30;;;12.70;99.90;;;;;;4994490;28;20050;-71
2023/08/09 05:28:58;;;;;;;46.58;13.52;;;12.80;99.90;;;;;;4987180;28;20042;-72
2023/08/09 05:31:23;;;;;;;70.95;12.60;;;12.80;99.90;;;;;;5009267;28;20188;-71
2023/08/09 05:33:49;;;;;;;59.17;12.20;;;12.80;99.90;;;;;;5005212;28;20045;-71
2023/08/09 05:36:15;;;;;;;61.92;12.23;;;12.80;99.90;;;;;;4995119;28;20046;-73
2023/08/09 05:38:40;;;;;;;53.20;11.27;;;12.70;99.90;;;;;;5007315;28;20109;-72
2023/08/09 05:41:06;;;;;;;42.22;11.50;;;12.80;99.90;;;;;;5010311;28;20038;-72
2023/08/09 05:43:32;;;;;;;49.70;10.90;;;12.80;99.90;;;;;;4998796;28;20026;-72
2023/08/09 05:45:57;;;;;;;43.85;12.43;;;12.80;99.90;;;;;;4979048;28;20482;-73
2023/08/09 05:48:23;;;;;;;49.00;11.32;;;12.90;99.90;;;;;;4977147;28;20042;-73
2023/08/09 05:50:49;;;;;;;32.90;11.15;;;12.90;99.90;;;;;;4994182;28;20124;-73
2023/08/09 05:53:15;;;;;;;18.33;10.25;;;13.00;99.90;;;;;;4973607;28;20777;-73
2023/08/09 05:55:40;;;;;;;21.77;11.18;;;12.90;99.90;;;;;;4999946;28;20120;-74
2023/08/09 05:58:06;;;;;;;21.85;11.05;;;13.00;99.90;;;;;;4980297;28;20440;-72
2023/08/09 06:00:32;;;;;;;23.05;11.45;;;13.00;99.90;;;;;;4974821;28;20836;-73
2023/08/09 06:02:59;;;;;;;18.45;12.13;;;13.00;99.90;;;;;;4981812;28;20049;-72
2023/08/09 06:05:27;;;;;;;16.85;11.02;;;13.10;99.90;;;;;;4973350;28;20043;-72
2023/08/09 06:07:55;;;;;;;23.88;11.80;;;13.10;99.90;;;;;;4971536;28;20497;-72
2023/08/09 06:10:22;;;;;;;17.45;11.82;;;13.20;99.90;;;;;;4977267;28;20074;-71
2023/08/09 06:12:49;;;;;;;20.65;11.52;;;13.20;99.90;;;;;;5002582;28;20499;-75
2023/08/09 06:15:16;;;;;;;19.08;11.43;;;13.20;99.90;;;;;;5005565;28;20436;-71
2023/08/09 06:17:42;;;;;;;22.42;11.13;;;13.30;99.90;;;;;;4978236;28;20552;-71
2023/08/09 06:20:08;;;;;;;17.10;11.75;;;13.40;99.90;;;;;;4985228;28;20034;-74
2023/08/09 06:22:34;;;;;;;18.63;11.70;;;13.50;99.90;;;;;;4997571;28;20041;-72
2023/08/09 06:25:00;;;;;;;17.58;11.50;;;13.50;99.90;;;;;;4980204;28;20465;-74
2023/08/09 06:27:25;;;;;;;16.20;11.88;;;13.50;99.90;;;;;;4980513;28;20073;-74
2023/08/09 06:29:51;;;;;;;17.27;11.80;;;13.60;99.90;;;;;;4978365;28;20041;-74
2023/08/09 06:32:17;;;;;;;15.43;11.35;;;13.70;99.90;;;;;;4972317;28;20035;-70
2023/08/09 06:34:42;;;;;;;19.67;12.18;;;13.70;99.90;;;;;;4975747;28;20030;-71
2023/08/09 06:37:08;;;;;;;18.20;12.38;;;13.80;99.90;;;;;;4981300;28;20489;-68
2023/08/09 06:39:34;;;;;;;17.25;11.25;;;14.00;99.90;;;;;;4976914;28;20118;-69
2023/08/09 06:42:00;;;;;;;18.05;11.57;;;14.00;99.90;;;;;;4969745;28;20054;-69
2023/08/09 06:44:26;;;;;;;15.73;11.32;;;14.00;99.90;;;;;;4983099;28;20125;-67
2023/08/09 06:46:53;;;;;;;17.67;12.20;;;14.10;99.90;;;;;;4980621;28;20412;-69
2023/08/09 06:49:21;;;;;;;14.82;10.88;;;14.20;99.90;;;;;;4972577;28;20061;-70
2023/08/09 06:51:46;;;;;;;16.25;11.07;;;14.10;99.90;;;;;;4977561;28;20428;-70
2023/08/09 06:54:12;;;;;;;15.10;10.68;;;14.20;99.90;;;;;;4978178;28;20034;-69
2023/08/09 06:56:38;;;;;;;15.68;10.88;;;14.30;99.90;;;;;;4977678;28;20038;-70
2023/08/09 06:59:04;;;;;;;14.18;10.27;;;14.30;99.90;;;;;;4973540;28;20034;-70
2023/08/09 07:01:31;;;;;;;15.88;10.95;;;14.30;99.90;;;;;;4973669;28;20134;-69
2023/08/09 07:03:56;;;;;;;14.70;10.20;;;14.30;99.90;;;;;;4975076;28;20038;-69
2023/08/09 07:06:23;;;;;;;14.82;10.50;;;14.40;99.90;;;;;;4978897;28;20112;-71
2023/08/09 07:08:49;;;;;;;15.85;10.93;;;14.40;99.90;;;;;;4984007;28;20146;-71
2023/08/09 07:11:14;;;;;;;14.27;10.63;;;14.40;99.90;;;;;;4975540;28;20038;-71
2023/08/09 07:13:40;;;;;;;17.90;10.63;;;14.50;99.90;;;;;;4982353;28;20062;-71
2023/08/09 07:16:06;;;;;;;15.98;10.73;;;14.60;99.90;;;;;;4995997;28;20579;-71
2023/08/09 07:18:33;;;;;;;14.90;11.25;;;14.70;99.90;;;;;;4991799;28;20069;-71
2023/08/09 07:20:58;;;;;;;15.50;9.98;;;14.70;99.90;;;;;;4992313;28;20042;-71
2023/08/09 07:23:25;;;;;;;14.88;10.60;;;14.70;99.90;;;;;;4986536;28;20540;-70
2023/08/09 07:25:51;;;;;;;13.88;10.57;;;14.70;99.90;;;;;;4974872;28;20508;-72
2023/08/09 07:28:17;;;;;;;16.90;10.70;;;14.70;99.90;;;;;;4987509;28;20634;-71
2023/08/09 07:30:42;;;;;;;14.23;10.00;;;14.70;99.90;;;;;;4980094;28;20039;-75
2023/08/09 07:33:08;;;;;;;14.73;9.65;;;14.60;99.90;;;;;;4979131;28;20129;-71
2023/08/09 07:35:33;;;;;;;13.63;10.32;;;14.70;99.90;;;;;;5007951;28;20409;-72
2023/08/09 07:37:59;;;;;;;15.32;10.02;;;14.80;99.90;;;;;;4995102;28;20084;-73
2023/08/09 07:40:25;;;;;;;13.73;10.05;;;14.80;99.90;;;;;;4982184;28;20045;-72
2023/08/09 07:42:50;;;;;;;14.02;10.05;;;14.90;99.90;;;;;;4999545;28;20046;-72
2023/08/09 07:45:16;;;;;;;14.38;9.75;;;14.90;99.90;;;;;;4996906;28;20044;-72
2023/08/09 07:47:42;;;;;;;14.95;10.13;;;15.00;99.90;;;;;;5002559;28;20034;-72
2023/08/09 07:50:08;;;;;;;15.00;10.07;;;15.00;99.90;;;;;;4992048;28;20509;-69
2023/08/09 07:52:35;;;;;;;12.77;9.63;;;15.00;99.90;;;;;;5009863;28;20507;-74
2023/08/09 07:55:00;;;;;;;16.52;9.93;;;15.10;99.90;;;;;;5005356;28;20065;-77
2023/08/09 07:57:26;;;;;;;14.88;9.20;;;15.10;99.90;;;;;;5000535;28;20129;-76
2023/08/09 07:59:51;;;;;;;13.35;9.27;;;15.20;99.90;;;;;;4978763;28;20046;-76
2023/08/09 08:02:18;;;;;;;15.40;9.75;;;15.30;99.90;;;;;;5008279;28;20451;-75
2023/08/09 08:04:44;;;;;;;13.88;9.48;;;15.40;99.90;;;;;;4977065;28;20442;-72
2023/08/09 08:07:09;;;;;;;11.07;8.57;;;15.40;99.90;;;;;;4981078;28;20038;-75
2023/08/09 08:09:40;;;;;;;11.90;8.50;;;15.50;99.90;;;;;;5000475;28;20042;-75
2023/08/09 08:12:08;;;;;;;12.75;7.95;;;15.60;99.90;;;;;;5010903;28;20056;-75
2023/08/09 08:14:35;;;;;;;12.70;9.07;;;15.70;99.90;;;;;;5000071;28;20038;-75
2023/08/09 08:17:01;;;;;;;14.40;8.48;;;15.80;99.90;;;;;;4987970;28;20049;-75
2023/08/09 08:19:26;;;;;;;13.02;8.70;;;15.80;99.90;;;;;;4983608;28;20038;-75
2023/08/09 08:21:52;;;;;;;11.07;7.57;;;16.00;99.90;;;;;;4986490;28;20331;-75
2023/08/09 08:24:18;;;;;;;8.82;6.25;;;16.00;99.90;;;;;;5003281;28;20060;-75
2023/08/09 08:26:44;;;;;;;10.10;7.10;;;16.00;99.90;;;;;;4997242;28;20046;-75
2023/08/09 08:29:09;;;;;;;10.00;6.65;;;16.10;99.90;;;;;;4989439;28;20060;-75
2023/08/09 08:31:36;;;;;;;11.85;7.55;;;16.20;99.90;;;;;;5002697;28;20038;-75
2023/08/09 08:34:02;;;;;;;11.05;7.32;;;16.40;99.90;;;;;;5012150;28;20045;-75
2023/08/09 08:36:27;;;;;;;8.55;5.80;;;16.50;99.90;;;;;;5011935;28;20034;-75
2023/08/09 08:38:53;;;;;;;11.45;6.15;;;16.50;99.90;;;;;;4976813;28;20438;-76
2023/08/09 08:41:19;;;;;;;10.90;7.30;;;16.60;99.90;;;;;;4998409;28;20042;-76
2023/08/09 08:43:45;;;;;;;10.18;6.43;;;16.70;99.90;;;;;;4977851;28;20043;-76
2023/08/09 08:46:15;;;;;;;8.40;6.30;;;16.80;99.90;;;;;;5005988;28;20034;-76
2023/08/09 08:48:46;;;;;;;9.73;6.38;;;16.80;99.90;;;;;;5010348;28;20488;-76
2023/08/09 08:51:13;;;;;;;7.28;5.45;;;16.90;99.90;;;;;;5006936;28;20121;-76
2023/08/09 08:53:40;;;;;;;9.52;5.63;;;17.00;99.90;;;;;;4985983;28;20030;-77
2023/08/09 08:56:06;;;;;;;7.57;5.80;;;17.10;99.90;;;;;;4998846;28;20068;-75
2023/08/09 08:58:33;;;;;;;8.00;5.20;;;17.10;99.90;;;;;;5009171;28;20027;-75
2023/08/09 09:00:59;;;;;;;7.65;5.40;;;17.10;99.90;;;;;;4990823;28;20042;-75
2023/08/09 09:03:25;;;;;;;7.47;5.15;;;17.10;99.90;;;;;;4987777;28;20038;-74
2023/08/09 09:05:50;;;;;;;5.82;4.57;;;17.30;99.90;;;;;;5003441;28;20041;-75
2023/08/09 09:08:16;;;;;;;6.00;3.72;;;17.30;99.90;;;;;;5000077;28;20492;-75
2023/08/09 09:10:46;;;;;;;5.47;3.28;;;17.40;99.90;;;;;;4978650;28;20061;-74
2023/08/09 09:13:26;;;;;;;6.85;3.50;;;17.50;99.90;;;;;;4978445;28;20030;-74
2023/08/09 09:15:54;;;;;;;5.72;4.20;;;17.60;99.90;;;;;;4989421;28;20124;-75
2023/08/09 09:18:21;;;;;;;6.03;3.58;;;17.60;99.90;;;;;;5009171;28;20052;-75
2023/08/09 09:20:46;;;;;;;5.22;2.80;;;17.70;99.90;;;;;;5010247;28;20085;-75
2023/08/09 09:23:25;;;;;;;3.60;2.40;;;17.90;99.90;;;;;;4983616;28;20599;-75
2023/08/09 09:26:17;;;;;;;4.20;2.88;;;17.90;99.90;;;;;;5006432;28;20140;-75
2023/08/09 09:28:47;;;;;;;3.30;2.22;;;18.00;99.90;;;;;;4984965;28;20043;-75
2023/08/09 09:31:17;;;;;;;3.92;2.67;;;18.10;99.90;;;;;;5004131;28;20052;-76
2023/08/09 09:33:51;;;;;;;4.28;3.00;;;18.10;99.90;;;;;;5000114;28;20049;-76
2023/08/09 09:36:17;;;;;;;5.88;3.10;;;18.20;99.90;;;;;;5000635;28;20057;-75
2023/08/09 09:38:44;;;;;;;7.00;3.20;;;18.30;99.90;;;;;;5015243;28;20034;-77
2023/08/09 09:41:11;;;;;;;6.93;3.13;;;18.40;99.90;;;;;;5000398;28;20050;-76
2023/08/09 09:43:39;;;;;;;5.00;3.25;;;18.60;99.90;;;;;;4992875;28;20084;-77
2023/08/09 09:46:17;;;;;;;5.00;2.40;;;18.80;99.90;;;;;;4994425;28;20042;-76
2023/08/09 09:48:49;;;;;;;3.78;2.30;;;18.90;99.90;;;;;;5007375;28;20045;-76
2023/08/09 09:51:19;;;;;;;3.25;2.00;;;18.80;99.90;;;;;;5007790;28;20500;-78
2023/08/09 09:53:46;;;;;;;4.78;2.83;;;18.70;99.90;;;;;;4980702;28;20034;-78
2023/08/09 09:56:14;;;;;;;5.30;2.42;;;18.80;99.90;;;;;;4992559;28;20096;-77
2023/08/09 09:58:41;;;;;;;4.88;2.92;;;18.90;99.90;;;;;;4990097;28;20520;-79
2023/08/09 10:01:12;;;;;;;3.33;2.50;;;19.10;99.90;;;;;;4988779;28;20510;-76
2023/08/09 10:03:42;;;;;;;3.08;1.90;;;19.00;99.90;;;;;;4995506;28;20128;-76
2023/08/09 10:06:13;;;;;;;2.75;1.90;;;18.90;99.90;;;;;;4982316;28;20035;-77
2023/08/09 10:08:41;;;;;;;4.32;1.77;;;18.90;99.90;;;;;;4979675;28;20038;-76
2023/08/09 10:11:08;;;;;;;3.28;2.00;;;19.10;99.90;;;;;;4975663;28;20046;-78
2023/08/09 10:13:36;;;;;;;4.55;1.85;;;19.50;99.90;;;;;;4988497;28;20042;-72
2023/08/09 10:16:05;;;;;;;3.00;1.60;;;19.70;99.90;;;;;;5008700;28;20393;-72
2023/08/09 10:18:39;;;;;;;3.60;1.60;;;19.50;99.90;;;;;;4970211;28;20138;-77
2023/08/09 10:21:06;;;;;;;3.30;2.20;;;19.40;99.90;;;;;;5008125;28;20136;-73
2023/08/09 10:23:32;;;;;;;5.00;1.98;;;19.40;99.90;;;;;;5012010;28;20038;-70
2023/08/09 10:25:58;;;;;;;3.05;1.80;;;19.30;99.90;;;;;;5014069;28;20049;-70
2023/08/09 10:28:44;;;;;;;5.60;2.13;;;19.40;99.90;;;;;;5012691;28;20038;-72
2023/08/09 10:31:10;;;;;;;3.05;1.80;;;19.50;99.90;;;;;;5013519;28;20604;-74
2023/08/09 10:33:36;;;;;;;4.18;1.92;;;19.70;99.90;;;;;;5015132;28;20106;-74
2023/08/09 10:36:01;;;;;;;2.92;1.70;;;19.70;99.90;;;;;;4999822;28;20489;-74
2023/08/09 10:38:30;;;;;;;2.70;1.60;;;19.80;99.90;;;;;;4990341;28;20084;-74
2023/08/09 10:40:56;;;;;;;2.22;1.48;;;20.00;99.90;;;;;;4992617;28;20489;-71
2023/08/09 10:43:29;;;;;;;2.53;1.73;;;20.10;99.90;;;;;;4992756;28;20054;-70
2023/08/09 10:45:56;;;;;;;4.05;1.90;;;20.00;99.90;;;;;;4994305;28;20038;-71
2023/08/09 10:48:23;;;;;;;2.78;1.67;;;20.00;99.90;;;;;;4992849;28;20502;-71
2023/08/09 10:51:07;;;;;;;2.95;1.70;;;20.00;99.90;;;;;;4991569;28;20627;-70
2023/08/09 10:53:56;;;;;;;3.78;1.65;;;20.10;99.90;;;;;;4968589;28;20953;-70
2023/08/09 10:56:31;;;;;;;2.97;1.60;;;20.00;99.90;;;;;;4983609;28;20057;-70
2023/08/09 10:59:06;;;;;;;4.50;1.60;;;19.90;99.90;;;;;;4985081;28;20348;-69
2023/08/09 11:01:33;;;;;;;2.83;1.58;;;19.90;99.90;;;;;;5002638;28;20184;-70
2023/08/09 11:03:59;;;;;;;3.30;1.58;;;20.00;99.90;;;;;;4983192;28;20544;-70
2023/08/09 11:06:41;;;;;;;3.03;1.45;;;20.10;99.90;;;;;;4992668;28;20041;-70
2023/08/09 11:09:12;;;;;;;3.20;1.60;;;20.20;99.90;;;;;;4964675;28;20035;-70
2023/08/09 11:11:41;;;;;;;2.35;1.60;;;20.30;99.90;;;;;;4971370;28;20490;-70
2023/08/09 11:14:11;;;;;;;4.05;1.65;;;20.50;99.90;;;;;;4963845;28;20069;-70
2023/08/09 11:16:37;;;;;;;3.45;1.80;;;20.70;99.90;;;;;;4988886;28;20061;-77
2023/08/09 11:19:05;;;;;;;5.00;1.80;;;20.80;99.90;;;;;;4950140;28;20088;-77
2023/08/09 11:21:42;;;;;;;3.20;1.77;;;21.00;99.90;;;;;;4961709;28;20118;-77
2023/08/09 11:24:08;;;;;;;4.07;1.65;;;21.10;99.90;;;;;;4981586;28;20042;-77
2023/08/09 11:27:00;;;;;;;3.90;1.73;;;21.00;99.90;;;;;;4986898;28;20042;-77
2023/08/09 11:33:12;;;;;;;3.58;1.70;;;20.80;99.90;;;;;;5023755;28;20077;-77
2023/08/09 11:36:12;;;;;;;3.83;1.67;;;20.80;99.90;;;;;;4994951;28;20045;-77
2023/08/09 11:38:38;;;;;;;3.85;1.80;;;21.00;99.90;;;;;;4977719;28;20046;-78
2023/08/09 11:41:04;;;;;;;3.72;1.75;;;21.00;99.90;;;;;;4995685;28;20053;-77
2023/08/09 11:43:29;;;;;;;3.63;1.80;;;21.20;99.90;;;;;;4981841;28;20085;-78
2023/08/09 11:45:57;;;;;;;3.90;1.75;;;21.10;99.90;;;;;;4997034;28;20041;-73
2023/08/09 11:48:31;;;;;;;2.85;1.80;;;21.00;99.90;;;;;;4999438;28;20042;-75
2023/08/09 11:51:06;;;;;;;3.90;1.90;;;20.90;99.90;;;;;;5009029;28;20042;-75
2023/08/09 11:53:33;;;;;;;3.47;1.85;;;20.70;99.90;;;;;;5005061;28;20100;-75
2023/08/09 11:56:04;;;;;;;3.80;1.90;;;20.70;99.90;;;;;;4997836;28;20121;-74
2023/08/09 11:58:33;;;;;;;3.33;1.80;;;20.80;99.90;;;;;;4995452;28;20049;-74
2023/08/09 12:00:59;;;;;;;4.32;2.03;;;20.90;99.90;;;;;;4997276;28;20552;-74
2023/08/09 12:03:25;;;;;;;4.53;1.85;;;20.90;99.90;;;;;;4996162;28;20033;-74
2023/08/09 12:05:53;;;;;;;4.80;2.67;;;21.00;99.90;;;;;;5011759;28;20119;-74
2023/08/09 12:08:45;;;;;;;3.00;2.20;;;20.90;99.90;;;;;;5011126;28;20362;-75
2023/08/09 12:11:16;;;;;;;4.10;2.00;;;21.10;99.90;;;;;;4992343;28;20497;-74
2023/08/09 12:13:41;;;;;;;4.60;2.17;;;21.20;99.90;;;;;;4986181;28;20049;-72
2023/08/09 12:16:07;;;;;;;3.67;2.00;;;21.40;99.90;;;;;;4988382;28;20042;-72
2023/08/09 12:18:35;;;;;;;3.38;2.10;;;21.50;99.90;;;;;;5003068;28;20040;-71
2023/08/09 12:21:02;;;;;;;4.78;2.10;;;21.50;99.90;;;;;;5011079;28;20476;-71
2023/08/09 12:23:28;;;;;;;5.00;1.80;;;21.60;99.90;;;;;;5012752;28;20034;-70
2023/08/09 12:25:53;;;;;;;8.25;2.13;;;21.60;99.90;;;;;;4980593;28;20438;-71
2023/08/09 12:28:19;;;;;;;2.72;1.90;;;21.10;99.90;;;;;;4995550;28;20037;-70
2023/08/09 12:30:45;;;;;;;3.70;1.88;;;20.90;99.90;;;;;;5010421;28;20065;-71
2023/08/09 12:33:11;;;;;;;4.05;2.00;;;20.70;99.90;;;;;;4971028;28;20485;-70
2023/08/09 12:35:36;;;;;;;4.40;2.13;;;20.70;99.90;;;;;;4977929;28;20460;-69
2023/08/09 12:38:02;;;;;;;4.18;1.98;;;20.80;99.90;;;;;;5007528;28;20127;-70